Time;durP1;ratioP1;P1;durP2;ratioP2;P2;SDS_P1;SDS_P2;PMS_P1;PMS_P2;Temp;Humidity;BMP_temperature;BMP_pressure;BME280_temperature;BME280_humidity;BME280_pressure;Samples;Min_cycle;Max_cycle;Signal;HPM_P1;HPM_P2
2021/10/26 00:00:54;;;;;;;;;;;12.10;99.90;;;;;;5113769;28;19947;-70
2021/10/26 00:03:20;;;;;;;;;;;12.20;99.90;;;;;;5113752;28;19931;-69
2021/10/26 00:05:45;;;;;;;;;;;12.10;99.90;;;;;;5113723;28;19960;-69
2021/10/26 00:08:11;;;;;;;;;;;12.00;99.90;;;;;;5113954;28;19908;-69
2021/10/26 00:10:36;;;;;;;;;;;12.10;99.90;;;;;;5095407;28;19908;-70
2021/10/26 00:13:02;;;;;;;;;;;12.00;99.90;;;;;;5113395;28;19920;-69
2021/10/26 00:15:28;;;;;;;;;;;12.10;99.90;;;;;;5113902;28;19912;-69
2021/10/26 00:17:53;;;;;;;;;;;12.10;99.90;;;;;;5095393;28;19999;-70
2021/10/26 00:20:19;;;;;;;;;;;12.00;99.90;;;;;;5115293;28;20382;-70
2021/10/26 00:22:44;;;;;;;;;;;12.00;99.90;;;;;;5117809;28;20351;-69
2021/10/26 00:25:10;;;;;;;;;;;12.00;99.90;;;;;;5117571;28;19952;-68
2021/10/26 00:27:36;;;;;;;;;;;12.00;99.90;;;;;;5117180;28;19955;-68
2021/10/26 00:30:03;;;;;;;;;;;12.10;99.90;;;;;;5117720;28;19912;-68
2021/10/26 00:32:29;;;;;;;;;;;12.20;99.90;;;;;;5117257;28;19916;-69
2021/10/26 00:34:54;;;;;;;;;;;12.10;99.90;;;;;;5117645;28;19961;-68
2021/10/26 00:37:20;;;;;;;;;;;12.20;99.90;;;;;;5117301;28;19914;-70
2021/10/26 00:39:45;;;;;;;;;;;12.40;99.90;;;;;;5117003;28;20279;-69
2021/10/26 00:42:11;;;;;;;;;;;12.30;99.90;;;;;;5117483;28;19908;-69
2021/10/26 00:44:37;;;;;;;;;;;12.20;99.90;;;;;;5116861;28;19915;-70
2021/10/26 00:47:03;;;;;;;;;;;12.30;99.90;;;;;;5116774;28;19908;-69
2021/10/26 00:49:29;;;;;;;;;;;12.20;99.90;;;;;;5117291;28;19908;-69
2021/10/26 00:51:55;;;;;;;;;;;12.00;99.90;;;;;;5116643;28;19970;-69
2021/10/26 00:54:23;;;;;;;;;;;12.20;99.90;;;;;;5116967;28;19914;-69
2021/10/26 00:56:48;;;;;;;;;;;12.10;99.90;;;;;;5116626;28;19990;-68
2021/10/26 00:59:14;;;;;;;;;;;12.10;99.90;;;;;;5116582;28;20351;-71
2021/10/26 01:01:39;;;;;;;;;;;12.20;99.90;;;;;;5116799;28;20248;-68
2021/10/26 01:04:05;;;;;;;;;;;12.10;99.90;;;;;;5116774;28;20003;-70
2021/10/26 01:06:31;;;;;;;;;;;12.20;99.90;;;;;;5116467;28;19915;-68
2021/10/26 01:08:56;;;;;;;;;;;12.30;99.90;;;;;;5116934;28;19914;-70
2021/10/26 01:11:22;;;;;;;;;;;12.20;99.90;;;;;;5116445;28;20356;-71
2021/10/26 01:13:48;;;;;;;;;;;12.20;99.90;;;;;;5116184;28;19911;-67
2021/10/26 01:16:14;;;;;;;;;;;12.10;99.90;;;;;;5116833;28;19908;-68
2021/10/26 01:18:39;;;;;;;;;;;12.10;99.90;;;;;;5116177;28;19908;-70
2021/10/26 01:21:05;;;;;;;;;;;12.10;99.90;;;;;;5116744;28;19916;-71
2021/10/26 01:23:31;;;;;;;;;;;12.20;99.90;;;;;;5116016;28;19914;-70
2021/10/26 01:25:57;;;;;;;;;;;12.20;99.90;;;;;;5116300;28;20241;-68
2021/10/26 01:28:23;;;;;;;;;;;12.30;99.90;;;;;;5116563;28;19915;-68
2021/10/26 01:30:49;;;;;;;;;;;12.30;99.90;;;;;;5115920;28;19973;-69
2021/10/26 01:33:15;;;;;;;;;;;12.40;99.90;;;;;;5116138;28;19919;-68
2021/10/26 01:35:41;;;;;;;;;;;12.10;99.90;;;;;;5115812;28;19908;-70
2021/10/26 01:38:07;;;;;;;;;;;11.90;99.90;;;;;;5116081;28;19907;-71
2021/10/26 01:40:33;;;;;;;;;;;11.40;99.90;;;;;;5115714;28;19908;-68
2021/10/26 01:42:59;;;;;;;;;;;11.30;99.90;;;;;;5115705;28;19916;-70
2021/10/26 01:45:24;;;;;;;;;;;11.20;99.90;;;;;;5115970;28;19908;-70
2021/10/26 01:47:50;;;;;;;;;;;11.20;99.90;;;;;;5115620;28;19915;-69
2021/10/26 01:50:17;;;;;;;;;;;11.30;99.90;;;;;;5115861;28;19915;-68
2021/10/26 01:52:42;;;;;;;;;;;11.50;99.90;;;;;;5115450;28;19911;-69
2021/10/26 01:55:09;;;;;;;;;;;11.80;99.90;;;;;;5115754;28;19918;-70
2021/10/26 01:57:36;;;;;;;;;;;11.90;99.90;;;;;;5115410;28;19998;-70
2021/10/26 02:00:07;;;;;;;;;;;12.00;99.90;;;;;;5115382;28;19908;-68
2021/10/26 02:02:33;;;;;;;;;;;12.00;99.90;;;;;;5115611;28;19950;-68
2021/10/26 02:04:59;;;;;;;;;;;12.10;99.90;;;;;;5115551;28;19951;-69
2021/10/26 02:07:25;;;;;;;;;;;12.10;99.90;;;;;;5115231;28;19907;-70
2021/10/26 02:09:50;;;;;;;;;;;12.10;99.90;;;;;;5115416;28;19908;-68
2021/10/26 02:12:16;;;;;;;;;;;11.90;99.90;;;;;;5114898;28;19924;-70
2021/10/26 02:14:41;;;;;;;;;;;11.90;99.90;;;;;;5115413;28;19990;-69
2021/10/26 02:17:07;;;;;;;;;;;11.90;99.90;;;;;;5115096;28;19915;-70
2021/10/26 02:19:32;;;;;;;;;;;11.80;99.90;;;;;;5115294;28;19915;-70
2021/10/26 02:21:58;;;;;;;;;;;11.80;99.90;;;;;;5114942;28;19912;-69
2021/10/26 02:24:24;;;;;;;;;;;11.80;99.90;;;;;;5115197;28;19931;-70
2021/10/26 02:26:49;;;;;;;;;;;11.80;99.90;;;;;;5114878;28;19998;-68
2021/10/26 02:29:15;;;;;;;;;;;11.90;99.90;;;;;;5114722;28;19911;-68
2021/10/26 02:31:41;;;;;;;;;;;11.80;99.90;;;;;;5114786;28;19914;-68
2021/10/26 02:34:07;;;;;;;;;;;11.70;99.90;;;;;;5114683;28;20019;-70
2021/10/26 02:36:33;;;;;;;;;;;11.70;99.90;;;;;;5114700;28;19915;-68
2021/10/26 02:38:59;;;;;;;;;;;11.80;99.90;;;;;;5114641;28;20285;-68
2021/10/26 02:41:24;;;;;;;;;;;11.70;99.90;;;;;;5114627;28;20006;-70
2021/10/26 02:43:50;;;;;;;;;;;11.60;99.90;;;;;;5114483;28;19914;-71
2021/10/26 02:46:16;;;;;;;;;;;11.70;99.90;;;;;;5114553;28;19973;-68
2021/10/26 02:48:42;;;;;;;;;;;11.50;99.90;;;;;;5114592;28;19914;-70
2021/10/26 02:51:11;;;;;;;;;;;11.60;99.90;;;;;;5114762;28;19907;-69
2021/10/26 02:53:36;;;;;;;;;;;11.70;99.90;;;;;;5114380;28;19918;-69
2021/10/26 02:56:02;;;;;;;;;;;11.90;99.90;;;;;;5114979;28;20287;-69
2021/10/26 02:58:27;;;;;;;;;;;12.00;99.90;;;;;;5114374;28;19908;-69
2021/10/26 03:00:53;;;;;;;;;;;12.10;99.90;;;;;;5114358;28;19908;-69
2021/10/26 03:03:19;;;;;;;;;;;12.10;99.90;;;;;;5114309;28;19915;-69
2021/10/26 03:05:44;;;;;;;;;;;12.20;99.90;;;;;;5114234;28;19915;-69
2021/10/26 03:08:10;;;;;;;;;;;12.20;99.90;;;;;;5114501;28;19907;-69
2021/10/26 03:10:36;;;;;;;;;;;12.20;99.90;;;;;;5114190;28;19957;-69
2021/10/26 03:13:02;;;;;;;;;;;12.20;99.90;;;;;;5113854;28;19919;-70
2021/10/26 03:15:28;;;;;;;;;;;12.30;99.90;;;;;;5114414;28;19915;-70
2021/10/26 03:17:53;;;;;;;;;;;12.30;99.90;;;;;;5114446;28;19908;-69
2021/10/26 03:20:19;;;;;;;;;;;12.40;99.90;;;;;;5114722;28;20252;-69
2021/10/26 03:22:45;;;;;;;;;;;12.40;99.90;;;;;;5114044;28;19907;-70
2021/10/26 03:25:10;;;;;;;;;;;12.40;99.90;;;;;;5114103;28;19908;-69
2021/10/26 03:27:36;;;;;;;;;;;12.40;99.90;;;;;;5114381;28;19908;-69
2021/10/26 03:30:05;;;;;;;;;;;12.40;99.90;;;;;;5114036;28;19915;-68
2021/10/26 03:32:31;;;;;;;;;;;12.40;99.90;;;;;;5113855;28;19912;-70
2021/10/26 03:34:57;;;;;;;;;;;12.30;99.90;;;;;;5114549;28;19952;-69
2021/10/26 03:37:22;;;;;;;;;;;12.30;99.90;;;;;;5113957;28;19912;-67
2021/10/26 03:39:54;;;;;;;;;;;12.30;99.90;;;;;;5114211;28;19984;-68
2021/10/26 03:42:20;;;;;;;;;;;12.40;99.90;;;;;;5113983;28;19931;-67
2021/10/26 03:44:46;;;;;;;;;;;12.40;99.90;;;;;;5114225;28;19947;-67
2021/10/26 03:47:11;;;;;;;;;;;12.30;99.90;;;;;;5113921;28;19946;-69
2021/10/26 03:49:37;;;;;;;;;;;12.20;99.90;;;;;;5114098;28;20421;-68
2021/10/26 03:52:02;;;;;;;;;;;12.20;99.90;;;;;;5113800;28;19908;-70
2021/10/26 03:54:28;;;;;;;;;;;12.20;99.90;;;;;;5114493;28;19912;-69
2021/10/26 03:56:54;;;;;;;;;;;12.20;99.90;;;;;;5117812;28;19956;-70
2021/10/26 03:59:19;;;;;;;;;;;12.30;99.90;;;;;;5118000;28;20368;-69
2021/10/26 04:01:45;;;;;;;;;;;12.30;99.90;;;;;;5117713;28;19907;-68
2021/10/26 04:04:11;;;;;;;;;;;12.30;99.90;;;;;;5117665;28;19961;-70
2021/10/26 04:06:36;;;;;;;;;;;12.30;99.90;;;;;;5117919;28;19911;-71
2021/10/26 04:09:10;;;;;;;;;;;12.30;99.90;;;;;;5117610;28;19908;-68
2021/10/26 04:11:50;;;;;;;;;;;12.30;99.90;;;;;;5117831;28;19908;-69
2021/10/26 04:14:15;;;;;;;;;;;12.30;99.90;;;;;;5098856;28;19951;-68
2021/10/26 04:16:41;;;;;;;;;;;12.40;99.90;;;;;;5117706;28;19908;-68
2021/10/26 04:19:08;;;;;;;;;;;12.30;99.90;;;;;;5117379;28;19908;-70
2021/10/26 04:21:34;;;;;;;;;;;12.30;99.90;;;;;;5117619;28;19930;-70
2021/10/26 04:24:01;;;;;;;;;;;12.30;99.90;;;;;;5117245;28;20422;-71
2021/10/26 04:26:26;;;;;;;;;;;12.30;99.90;;;;;;5117275;28;20387;-68
2021/10/26 04:28:52;;;;;;;;;;;12.40;99.90;;;;;;5117127;28;19914;-69
2021/10/26 04:31:18;;;;;;;;;;;12.50;99.90;;;;;;5098900;28;20424;-69
2021/10/26 04:33:43;;;;;;;;;;;12.50;99.90;;;;;;5117023;28;19918;-68
2021/10/26 04:36:09;;;;;;;;;;;12.60;99.90;;;;;;5117051;28;19908;-68
2021/10/26 04:38:35;;;;;;;;;;;12.60;99.90;;;;;;5117299;28;19912;-66
2021/10/26 04:41:02;;;;;;;;;;;12.60;99.90;;;;;;5116968;28;19914;-69
2021/10/26 04:43:28;;;;;;;;;;;12.60;99.90;;;;;;5117218;28;20305;-70
2021/10/26 04:45:53;;;;;;;;;;;12.60;99.90;;;;;;5116830;28;19907;-68
2021/10/26 04:48:21;;;;;;;;;;;12.60;99.90;;;;;;5117354;28;19915;-70
2021/10/26 04:50:47;;;;;;;;;;;12.60;99.90;;;;;;5117098;28;20405;-68
2021/10/26 04:53:12;;;;;;;;;;;12.60;99.90;;;;;;5116669;28;19912;-68
2021/10/26 04:55:38;;;;;;;;;;;12.60;99.90;;;;;;5116966;28;19951;-69
2021/10/26 04:58:04;;;;;;;;;;;12.70;99.90;;;;;;5116642;28;20383;-70
2021/10/26 05:00:30;;;;;;;;;;;12.70;99.90;;;;;;5116578;28;19907;-69
2021/10/26 05:02:56;;;;;;;;;;;12.70;99.90;;;;;;5116540;28;19915;-69
2021/10/26 05:05:21;;;;;;;;;;;12.70;99.90;;;;;;5116417;28;19915;-71
2021/10/26 05:07:47;;;;;;;;;;;12.60;99.90;;;;;;5116778;28;19999;-69
2021/10/26 05:10:13;;;;;;;;;;;12.60;99.90;;;;;;5116446;28;20367;-68
2021/10/26 05:12:38;;;;;;;;;;;12.60;99.90;;;;;;5116275;28;20299;-69
2021/10/26 05:15:04;;;;;;;;;;;12.60;99.90;;;;;;5116903;28;19907;-69
2021/10/26 05:17:30;;;;;;;;;;;12.70;99.90;;;;;;5116287;28;19912;-69
2021/10/26 05:19:57;;;;;;;;;;;12.70;99.90;;;;;;5116468;28;19995;-69
2021/10/26 05:22:24;;;;;;;;;;;12.80;99.90;;;;;;5116070;28;19908;-70
2021/10/26 05:24:50;;;;;;;;;;;12.80;99.90;;;;;;5116403;28;19930;-69
2021/10/26 05:27:17;;;;;;;;;;;12.70;99.90;;;;;;5116064;28;20261;-69
2021/10/26 05:29:42;;;;;;;;;;;12.70;99.90;;;;;;5116303;28;19969;-69
2021/10/26 05:32:09;;;;;;;;;;;12.70;99.90;;;;;;5116183;28;19912;-70
2021/10/26 05:34:35;;;;;;;;;;;12.70;99.90;;;;;;5116190;28;19915;-69
2021/10/26 05:37:01;;;;;;;;;;;12.70;99.90;;;;;;5115822;28;20324;-70
2021/10/26 05:39:26;;;;;;;;;;;12.80;99.90;;;;;;5116055;28;19957;-68
2021/10/26 05:41:52;;;;;;;;;;;12.80;99.90;;;;;;5116022;28;19914;-69
2021/10/26 05:44:17;;;;;;;;;;;12.80;99.90;;;;;;5115731;28;19908;-68
2021/10/26 05:46:43;;;;;;;;;;;12.80;99.90;;;;;;5115972;28;19908;-70
2021/10/26 05:49:08;;;;;;;;;;;12.80;99.90;;;;;;5115628;28;19919;-68
2021/10/26 05:51:34;;;;;;;;;;;12.70;99.90;;;;;;5115552;28;19912;-69
2021/10/26 05:54:00;;;;;;;;;;;12.70;99.90;;;;;;5115721;28;19918;-69
2021/10/26 05:56:26;;;;;;;;;;;12.70;99.90;;;;;;5115494;28;20007;-69
2021/10/26 05:58:53;;;;;;;;;;;12.80;99.90;;;;;;5115463;28;19907;-68
2021/10/26 06:01:21;;;;;;;;;;;12.70;99.90;;;;;;5115393;28;19912;-70
2021/10/26 06:03:46;;;;;;;;;;;12.80;99.90;;;;;;5115658;28;20379;-70
2021/10/26 06:06:12;;;;;;;;;;;12.80;99.90;;;;;;5115831;28;19915;-69
2021/10/26 06:08:37;;;;;;;;;;;12.90;99.90;;;;;;5115263;28;19998;-68
2021/10/26 06:11:08;;;;;;;;;;;12.80;99.90;;;;;;5115783;28;19999;-69
2021/10/26 06:13:37;;;;;;;;;;;12.80;99.90;;;;;;5114720;28;19969;-70
2021/10/26 06:16:03;;;;;;;;;;;12.80;99.90;;;;;;5115420;28;19908;-70
2021/10/26 06:18:28;;;;;;;;;;;12.80;99.90;;;;;;5114352;28;19918;-69
2021/10/26 06:20:54;;;;;;;;;;;12.80;99.90;;;;;;5115004;28;19908;-67
2021/10/26 06:23:19;;;;;;;;;;;12.80;99.90;;;;;;5115078;28;20283;-71
2021/10/26 06:25:45;;;;;;;;;;;12.80;99.90;;;;;;5114939;28;20443;-69
2021/10/26 06:28:11;;;;;;;;;;;12.90;99.90;;;;;;5114872;28;20019;-70
2021/10/26 06:30:37;;;;;;;;;;;12.90;99.90;;;;;;5115112;28;19914;-69
2021/10/26 06:33:03;;;;;;;;;;;12.90;99.90;;;;;;5114721;28;20006;-69
2021/10/26 06:35:28;;;;;;;;;;;12.90;99.90;;;;;;5114784;28;19919;-70
2021/10/26 06:37:54;;;;;;;;;;;12.90;99.90;;;;;;5115021;28;19908;-68
2021/10/26 06:40:20;;;;;;;;;;;12.90;99.90;;;;;;5114669;28;19968;-70
2021/10/26 06:42:45;;;;;;;;;;;13.00;99.90;;;;;;5114920;28;19995;-70
2021/10/26 06:45:11;;;;;;;;;;;13.00;99.90;;;;;;5114845;28;19912;-69
2021/10/26 06:47:37;;;;;;;;;;;13.00;99.90;;;;;;5096207;28;19911;-70
2021/10/26 06:50:03;;;;;;;;;;;13.00;99.90;;;;;;5114520;28;19939;-68
2021/10/26 06:52:29;;;;;;;;;;;13.00;99.90;;;;;;5114378;28;19923;-69
2021/10/26 06:54:55;;;;;;;;;;;13.10;99.90;;;;;;5115068;28;19908;-68
2021/10/26 06:57:21;;;;;;;;;;;13.10;99.90;;;;;;5114470;28;19908;-70
2021/10/26 06:59:47;;;;;;;;;;;13.10;99.90;;;;;;5114714;28;19931;-67
2021/10/26 07:02:13;;;;;;;;;;;13.10;99.90;;;;;;5114335;28;19991;-70
2021/10/26 07:04:38;;;;;;;;;;;13.20;99.90;;;;;;5114333;28;19912;-70
2021/10/26 07:07:04;;;;;;;;;;;13.20;99.90;;;;;;5114887;28;20002;-69
2021/10/26 07:09:30;;;;;;;;;;;13.20;99.90;;;;;;5114231;28;19907;-71
2021/10/26 07:11:55;;;;;;;;;;;13.20;99.90;;;;;;5129195;27;19915;-77
2021/10/26 07:14:21;;;;;;;;;;;13.30;99.90;;;;;;5135229;27;20006;-76
2021/10/26 07:16:47;;;;;;;;;;;13.20;99.90;;;;;;5134441;27;19908;-72
2021/10/26 07:19:12;;;;;;;;;;;13.20;99.90;;;;;;5133985;28;19997;-76
2021/10/26 07:21:38;;;;;;;;;;;13.30;99.90;;;;;;5115771;28;19916;-75
2021/10/26 07:24:04;;;;;;;;;;;13.30;99.90;;;;;;5134592;27;19907;-75
2021/10/26 07:26:30;;;;;;;;;;;13.30;99.90;;;;;;5134692;28;20023;-75
2021/10/26 07:28:56;;;;;;;;;;;13.40;99.90;;;;;;5135564;27;20359;-76
2021/10/26 07:31:24;;;;;;;;;;;13.40;99.90;;;;;;5138747;27;19925;-75
2021/10/26 07:33:50;;;;;;;;;;;13.40;99.90;;;;;;5130998;27;19915;-76
2021/10/26 07:36:16;;;;;;;;;;;13.40;99.90;;;;;;5130025;27;19963;-78
2021/10/26 07:38:42;;;;;;;;;;;13.50;99.90;;;;;;5139237;27;20367;-75
2021/10/26 07:41:10;;;;;;;;;;;13.40;99.90;;;;;;5138468;27;19917;-74
2021/10/26 07:43:36;;;;;;;;;;;13.50;99.90;;;;;;5138936;27;19908;-74
2021/10/26 07:46:03;;;;;;;;;;;13.50;99.90;;;;;;5138332;27;20279;-72
2021/10/26 07:48:29;;;;;;;;;;;13.50;99.90;;;;;;5139039;27;19972;-75
2021/10/26 07:50:59;;;;;;;;;;;13.50;99.90;;;;;;5138549;27;19911;-76
2021/10/26 07:53:28;;;;;;;;;;;13.60;99.90;;;;;;5139223;27;19912;-77
2021/10/26 07:55:54;;;;;;;;;;;13.60;99.90;;;;;;5138203;27;19913;-77
2021/10/26 07:58:20;;;;;;;;;;;13.60;99.90;;;;;;5138266;27;19911;-74
2021/10/26 08:00:46;;;;;;;;;;;13.60;99.90;;;;;;5137862;27;20375;-74
2021/10/26 08:03:12;;;;;;;;;;;13.70;99.90;;;;;;5119516;27;20319;-77
2021/10/26 08:05:37;;;;;;;;;;;13.80;99.90;;;;;;5138142;27;19962;-76
2021/10/26 08:08:03;;;;;;;;;;;13.90;99.90;;;;;;5137660;27;20375;-77
2021/10/26 08:10:28;;;;;;;;;;;14.00;99.90;;;;;;5138086;27;19911;-74
2021/10/26 08:12:54;;;;;;;;;;;14.00;99.90;;;;;;5137321;27;19920;-77
2021/10/26 08:15:20;;;;;;;;;;;14.10;99.90;;;;;;5138036;27;19911;-78
2021/10/26 08:17:45;;;;;;;;;;;14.10;99.90;;;;;;5120093;27;20367;-75
2021/10/26 08:20:11;;;;;;;;;;;14.20;99.90;;;;;;5137997;27;19998;-76
2021/10/26 08:22:39;;;;;;;;;;;14.30;99.90;;;;;;5138039;27;19994;-75
2021/10/26 08:25:13;;;;;;;;;;;14.40;99.90;;;;;;5137952;27;19984;-73
2021/10/26 08:27:38;;;;;;;;;;;14.60;99.90;;;;;;5137977;27;20151;-73
2021/10/26 08:30:12;;;;;;;;;;;14.80;99.90;;;;;;5119612;27;20268;-74
2021/10/26 08:35:23;;;;;;;;;;;15.40;99.90;;;;;;5137661;27;20284;-74
2021/10/26 08:37:49;;;;;;;;;;;15.70;99.90;;;;;;5118420;27;19912;-74
2021/10/26 08:40:18;;;;;;;;;;;15.90;99.90;;;;;;5136810;27;19912;-77
2021/10/26 08:42:45;;;;;;;;;;;16.00;99.90;;;;;;5137455;27;20014;-74
2021/10/26 08:45:10;;;;;;;;;;;16.00;99.90;;;;;;5137552;27;19911;-74
2021/10/26 08:47:38;;;;;;;;;;;15.90;99.90;;;;;;5137461;27;19911;-72
2021/10/26 08:50:03;;;;;;;;;;;15.80;99.90;;;;;;5137199;27;20440;-74
2021/10/26 08:52:29;;;;;;;;;;;15.70;99.90;;;;;;5137606;27;19961;-74
2021/10/26 08:54:55;;;;;;;;;;;15.60;99.90;;;;;;5137180;27;20406;-78
2021/10/26 08:57:21;;;;;;;;;;;15.60;99.90;;;;;;5136683;27;19911;-75
2021/10/26 08:59:47;;;;;;;;;;;15.70;99.90;;;;;;5137317;27;19915;-75
2021/10/26 09:02:12;;;;;;;;;;;15.90;99.90;;;;;;5136998;27;19911;-74
2021/10/26 09:04:38;;;;;;;;;;;16.20;99.90;;;;;;5137430;27;19915;-72
2021/10/26 09:07:05;;;;;;;;;;;16.40;99.90;;;;;;5136329;27;19911;-75
2021/10/26 09:09:35;;;;;;;;;;;16.70;99.90;;;;;;5137580;27;20252;-75
2021/10/26 09:17:27;;;;;;;;;;;16.60;99.90;;;;;;5122802;27;19931;-71
2021/10/26 09:19:54;;;;;;;;;;;16.50;99.90;;;;;;5136709;27;19907;-76
2021/10/26 09:22:19;;;;;;;;;;;16.50;99.90;;;;;;5136942;27;19908;-75
2021/10/26 09:25:05;;;;;;;;;;;16.50;99.90;;;;;;5136670;27;19964;-75
2021/10/26 09:27:31;;;;;;;;;;;16.80;99.90;;;;;;5136952;27;20004;-74
2021/10/26 09:30:01;;;;;;;;;;;16.90;99.90;;;;;;5136637;27;19956;-75
2021/10/26 09:32:35;;;;;;;;;;;17.30;99.90;;;;;;5136080;27;20413;-78
2021/10/26 09:35:04;;;;;;;;;;;17.70;99.90;;;;;;5136612;27;20402;-82
2021/10/26 09:37:37;;;;;;;;;;;17.80;99.90;;;;;;5136382;27;19956;-73
2021/10/26 09:40:03;;;;;;;;;;;17.70;99.90;;;;;;5136590;27;20266;-76
2021/10/26 09:42:44;;;;;;;;;;;17.50;99.90;;;;;;5136287;27;20390;-77
2021/10/26 09:45:12;;;;;;;;;;;17.30;99.90;;;;;;5136269;27;20366;-77
2021/10/26 09:47:40;;;;;;;;;;;17.50;99.90;;;;;;5136224;27;19912;-74
2021/10/26 09:50:07;;;;;;;;;;;17.80;99.90;;;;;;5135798;27;20347;-74
2021/10/26 09:52:37;;;;;;;;;;;17.90;99.90;;;;;;5135398;27;19934;-76
2021/10/26 09:55:06;;;;;;;;;;;18.00;99.90;;;;;;5135966;27;19911;-75
2021/10/26 09:57:32;;;;;;;;;;;18.00;99.90;;;;;;5136040;27;20247;-73
2021/10/26 09:59:57;;;;;;;;;;;18.10;99.90;;;;;;5136347;27;19918;-76
2021/10/26 10:02:23;;;;;;;;;;;18.20;99.90;;;;;;5117297;27;20359;-78
2021/10/26 10:04:50;;;;;;;;;;;18.20;99.90;;;;;;5135672;27;19911;-78
2021/10/26 10:07:26;;;;;;;;;;;18.20;99.90;;;;;;5117469;27;19914;-76
2021/10/26 10:09:55;;;;;;;;;;;18.10;99.90;;;;;;5135024;27;19911;-77
2021/10/26 10:12:23;;;;;;;;;;;18.00;99.90;;;;;;5127775;27;19926;-75
2021/10/26 10:14:53;;;;;;;;;;;17.90;99.90;;;;;;5136267;27;20359;-76
2021/10/26 10:17:20;;;;;;;;;;;17.80;99.90;;;;;;5116270;27;19941;-74
2021/10/26 10:19:46;;;;;;;;;;;17.60;99.90;;;;;;5135130;27;19918;-72
2021/10/26 10:22:11;;;;;;;;;;;17.60;99.90;;;;;;5135055;27;19912;-73
2021/10/26 10:24:39;;;;;;;;;;;17.70;99.90;;;;;;5136285;27;20002;-73
2021/10/26 10:27:05;;;;;;;;;;;17.60;99.90;;;;;;5135554;27;20377;-73
2021/10/26 10:29:32;;;;;;;;;;;17.60;99.90;;;;;;5116761;27;19915;-74
2021/10/26 10:31:58;;;;;;;;;;;17.60;99.90;;;;;;5134719;27;19986;-71
2021/10/26 10:34:23;;;;;;;;;;;17.70;99.90;;;;;;5135265;27;20060;-71
2021/10/26 10:36:52;;;;;;;;;;;17.70;99.90;;;;;;5135387;27;19915;-70
2021/10/26 10:39:22;;;;;;;;;;;17.70;99.90;;;;;;5134283;27;19943;-71
2021/10/26 10:41:48;;;;;;;;;;;17.70;99.90;;;;;;5133083;27;19914;-74
2021/10/26 10:44:20;;;;;;;;;;;17.60;99.90;;;;;;5135223;27;19907;-73
2021/10/26 10:47:01;;;;;;;;;;;17.70;99.90;;;;;;5135427;27;20398;-71
2021/10/26 10:49:35;;;;;;;;;;;17.80;99.90;;;;;;5135163;27;19976;-71
2021/10/26 10:52:04;;;;;;;;;;;17.80;99.90;;;;;;5135389;27;19907;-71
2021/10/26 10:54:39;;;;;;;;;;;17.70;99.90;;;;;;5134919;27;20006;-71
2021/10/26 10:57:24;;;;;;;;;;;17.60;99.90;;;;;;5135583;27;20402;-70
2021/10/26 10:59:54;;;;;;;;;;;17.70;99.90;;;;;;5134941;27;19934;-71
2021/10/26 11:02:20;;;;;;;;;;;17.60;99.90;;;;;;5135168;27;19911;-71
2021/10/26 11:04:46;;;;;;;;;;;17.70;99.90;;;;;;5134576;27;19914;-70
2021/10/26 11:07:12;;;;;;;;;;;17.80;99.90;;;;;;5135138;27;19998;-71
2021/10/26 11:09:42;;;;;;;;;;;17.80;99.90;;;;;;5135084;27;19951;-73
2021/10/26 11:12:10;;;;;;;;;;;17.90;99.90;;;;;;5134437;27;20414;-71
2021/10/26 11:14:48;;;;;;;;;;;18.00;99.90;;;;;;5133966;27;20570;-71
2021/10/26 11:17:32;;;;;;;;;;;18.00;99.90;;;;;;5134753;27;19911;-71
2021/10/26 11:20:07;;;;;;;;;;;18.10;99.90;;;;;;5134985;28;19943;-71
2021/10/26 11:22:45;;;;;;;;;;;18.20;99.90;;;;;;5134623;27;20432;-71
2021/10/26 11:25:20;;;;;;;;;;;18.20;99.90;;;;;;5134648;28;19908;-70
2021/10/26 11:27:46;;;;;;;;;;;18.30;99.90;;;;;;5135227;28;19915;-71
2021/10/26 11:30:30;;;;;;;;;;;18.10;99.90;;;;;;5134917;28;20272;-71
2021/10/26 11:33:14;;;;;;;;;;;18.10;99.90;;;;;;5135082;28;19911;-71
2021/10/26 11:36:30;;;;;;;;;;;18.10;99.90;;;;;;5135175;28;19911;-71
2021/10/26 11:38:51;;;;;;;;;;;17.90;99.90;;;;;;5130307;28;20444;-70
2021/10/26 11:41:21;;;;;;;;;;;17.70;99.90;;;;;;5134827;28;19954;-70
2021/10/26 11:43:49;;;;;;;;;;;17.70;99.90;;;;;;5134520;28;20395;-71
2021/10/26 11:46:17;;;;;;;;;;;17.50;99.90;;;;;;5135048;28;19914;-72
2021/10/26 11:48:42;;;;;;;;;;;17.40;99.90;;;;;;5134452;28;19908;-72
2021/10/26 11:51:23;;;;;;;;;;;17.50;99.90;;;;;;5135013;28;19914;-71
2021/10/26 11:53:51;;;;;;;;;;;17.60;99.90;;;;;;5134340;28;19912;-71
2021/10/26 11:56:17;;;;;;;;;;;17.60;99.90;;;;;;5134392;28;20306;-74
2021/10/26 11:58:52;;;;;;;;;;;17.60;99.90;;;;;;5134357;28;19985;-73
2021/10/26 12:01:18;;;;;;;;;;;17.70;99.90;;;;;;5134692;28;20313;-70
2021/10/26 12:03:46;;;;;;;;;;;17.80;99.90;;;;;;5134593;28;19907;-72
2021/10/26 12:06:11;;;;;;;;;;;17.80;99.90;;;;;;5134237;28;19911;-70
2021/10/26 12:08:39;;;;;;;;;;;17.80;99.90;;;;;;5134234;28;20264;-72
2021/10/26 12:11:05;;;;;;;;;;;17.80;99.90;;;;;;5134834;28;19907;-70
2021/10/26 12:13:32;;;;;;;;;;;17.80;99.90;;;;;;5115325;28;20009;-71
2021/10/26 12:16:11;;;;;;;;;;;17.80;99.90;;;;;;5135320;27;20332;-70
2021/10/26 12:18:37;;;;;;;;;;;17.90;99.90;;;;;;5138337;27;19959;-71
2021/10/26 12:21:03;;;;;;;;;;;18.00;99.90;;;;;;5119557;27;19912;-71
2021/10/26 12:23:29;;;;;;;;;;;18.00;99.90;;;;;;5137814;27;19911;-71
2021/10/26 12:25:58;;;;;;;;;;;17.90;99.90;;;;;;5137867;27;19979;-70
2021/10/26 12:28:24;;;;;;;;;;;17.90;99.90;;;;;;5137813;27;19914;-70
2021/10/26 12:30:50;;;;;;;;;;;17.90;99.90;;;;;;5138358;27;19934;-73
2021/10/26 12:33:15;;;;;;;;;;;17.80;99.90;;;;;;5119195;27;20390;-70
2021/10/26 12:35:46;;;;;;;;;;;17.80;99.90;;;;;;5119230;27;19914;-74
2021/10/26 12:38:16;;;;;;;;;;;17.80;99.90;;;;;;5138202;27;20329;-70
2021/10/26 12:40:46;;;;;;;;;;;17.70;99.90;;;;;;5137595;27;19908;-70
2021/10/26 12:43:12;;;;;;;;;;;17.70;99.90;;;;;;5138088;27;19907;-70
2021/10/26 12:45:39;;;;;;;;;;;17.80;99.90;;;;;;5137484;27;19914;-70
2021/10/26 12:48:05;;;;;;;;;;;17.80;99.90;;;;;;5137691;27;19907;-72
2021/10/26 12:50:35;;;;;;;;;;;17.80;99.90;;;;;;5137408;27;19907;-71
2021/10/26 12:53:14;;;;;;;;;;;17.80;99.90;;;;;;5137892;27;19918;-70
2021/10/26 12:55:41;;;;;;;;;;;17.80;99.90;;;;;;5137233;27;19911;-70
2021/10/26 12:58:26;;;;;;;;;;;17.80;99.90;;;;;;5137540;27;19914;-70
2021/10/26 13:00:51;;;;;;;;;;;17.90;99.90;;;;;;5137008;27;20279;-73
2021/10/26 13:03:21;;;;;;;;;;;17.80;99.90;;;;;;5137087;27;19908;-70
2021/10/26 13:05:51;;;;;;;;;;;17.90;99.90;;;;;;5137382;27;19907;-70
2021/10/26 13:08:20;;;;;;;;;;;17.90;99.90;;;;;;5137065;27;20249;-70
2021/10/26 13:10:46;;;;;;;;;;;17.90;99.90;;;;;;5137342;27;19994;-71
2021/10/26 13:13:13;;;;;;;;;;;17.90;99.90;;;;;;5136513;27;19920;-69
2021/10/26 13:15:42;;;;;;;;;;;17.80;99.90;;;;;;5136879;27;20295;-70
2021/10/26 13:18:11;;;;;;;;;;;17.80;99.90;;;;;;5136852;27;19915;-70
2021/10/26 13:20:45;;;;;;;;;;;17.80;99.90;;;;;;5137134;27;19956;-72
2021/10/26 13:23:13;;;;;;;;;;;17.90;99.90;;;;;;5136876;27;19943;-72
2021/10/26 13:25:46;;;;;;;;;;;17.90;99.90;;;;;;5137003;27;19913;-70
2021/10/26 13:28:13;;;;;;;;;;;17.90;99.90;;;;;;5136499;27;19907;-72
2021/10/26 13:30:45;;;;;;;;;;;17.90;99.90;;;;;;5136964;27;19957;-71
2021/10/26 13:33:11;;;;;;;;;;;18.00;99.90;;;;;;5136493;27;19911;-73
2021/10/26 13:35:37;;;;;;;;;;;18.00;99.90;;;;;;5136575;27;20422;-73
2021/10/26 13:38:02;;;;;;;;;;;18.00;99.90;;;;;;5135994;27;20006;-70
2021/10/26 13:40:28;;;;;;;;;;;18.00;99.90;;;;;;5136015;27;19908;-72
2021/10/26 13:42:53;;;;;;;;;;;18.10;99.90;;;;;;5136959;27;19908;-71
2021/10/26 13:45:19;;;;;;;;;;;18.00;99.90;;;;;;5136363;27;19956;-70
2021/10/26 13:47:46;;;;;;;;;;;18.10;99.90;;;;;;5136165;27;20320;-73
2021/10/26 13:50:12;;;;;;;;;;;18.10;99.90;;;;;;5136274;27;19915;-71
2021/10/26 13:52:38;;;;;;;;;;;18.00;99.90;;;;;;5136726;27;19921;-70
2021/10/26 13:55:05;;;;;;;;;;;18.10;99.90;;;;;;5136421;27;19914;-69
2021/10/26 13:57:31;;;;;;;;;;;18.10;99.90;;;;;;5136660;27;19956;-72
2021/10/26 13:59:57;;;;;;;;;;;18.20;99.90;;;;;;5136080;27;19908;-72
2021/10/26 14:02:22;;;;;;;;;;;18.20;99.90;;;;;;5136268;27;20390;-71
2021/10/26 14:04:48;;;;;;;;;;;18.30;99.90;;;;;;5117492;27;19909;-74
2021/10/26 14:07:13;;;;;;;;;;;18.20;99.90;;;;;;5135892;27;19907;-70
2021/10/26 14:09:39;;;;;;;;;;;18.20;99.90;;;;;;5117493;27;19911;-72
2021/10/26 14:12:07;;;;;;;;;;;18.10;99.90;;;;;;5135638;27;19961;-71
2021/10/26 14:14:33;;;;;;;;;;;18.10;99.90;;;;;;5136277;27;19919;-70
2021/10/26 14:16:58;;;;;;;;;;;18.10;99.90;;;;;;5135979;27;19911;-71
2021/10/26 14:19:24;;;;;;;;;;;18.10;99.90;;;;;;5135659;27;19907;-71
2021/10/26 14:21:50;;;;;;;;;;;18.20;99.90;;;;;;5135606;27;19908;-72
2021/10/26 14:24:16;;;;;;;;;;;18.30;99.90;;;;;;5135443;27;19914;-70